createdAt,value
2017-06-22T00:00:54.594Z,997.06
2017-06-22T00:02:04.984Z,997.05
2017-06-22T00:03:15.016Z,997.02
2017-06-22T00:04:25.380Z,997.04
2017-06-22T00:05:35.745Z,997.04
2017-06-22T00:06:45.799Z,997.06
2017-06-22T00:07:56.259Z,997.06
2017-06-22T00:09:06.296Z,997.03
2017-06-22T00:10:16.650Z,997.03
2017-06-22T00:11:27.000Z,997.03
2017-06-22T00:12:37.362Z,997.05
2017-06-22T00:13:47.457Z,997.02
2017-06-22T00:14:57.505Z,997.09
2017-06-22T00:16:07.853Z,997.07
2017-06-22T00:17:18.210Z,997.11
2017-06-22T00:18:28.554Z,997.13
2017-06-22T00:19:38.943Z,997.12
2017-06-22T00:20:49.298Z,997.14
2017-06-22T00:21:59.821Z,997.14
2017-06-22T00:23:10.175Z,997.14
2017-06-22T00:24:20.234Z,997.16
2017-06-22T00:25:30.585Z,997.11
2017-06-22T00:26:40.945Z,997.16
2017-06-22T00:27:51.289Z,997.13
2017-06-22T00:29:01.321Z,997.14
2017-06-22T00:30:11.665Z,997.14
2017-06-22T00:31:21.715Z,997.12
2017-06-22T00:32:31.755Z,997.1
2017-06-22T00:33:41.475Z,997.1
2017-06-22T00:34:51.210Z,997.11
2017-06-22T00:36:00.936Z,997.14
2017-06-22T00:37:11.342Z,997.16
2017-06-22T00:38:21.694Z,997.17
2017-06-22T00:39:31.740Z,997.16
2017-06-22T00:40:41.778Z,997.19
2017-06-22T00:41:51.506Z,997.17
2017-06-22T00:43:01.592Z,997.2
2017-06-22T00:44:11.959Z,997.21
2017-06-22T00:45:22.321Z,997.19
2017-06-22T00:46:32.688Z,997.18
2017-06-22T00:47:42.418Z,997.16
2017-06-22T00:48:52.821Z,997.16
2017-06-22T00:50:03.181Z,997.21
2017-06-22T00:51:13.544Z,997.17
2017-06-22T00:52:23.580Z,997.19
2017-06-22T00:53:33.643Z,997.21
2017-06-22T00:54:43.682Z,997.2
2017-06-22T00:55:54.038Z,997.22
2017-06-22T00:57:04.093Z,997.2
2017-06-22T00:58:13.819Z,997.2
2017-06-22T00:59:24.181Z,997.18
2017-06-22T01:00:34.204Z,997.21
2017-06-22T01:01:44.568Z,997.24
2017-06-22T01:02:54.605Z,997.2
2017-06-22T01:04:04.960Z,997.22
2017-06-22T01:05:15.004Z,997.22
2017-06-22T01:06:25.097Z,997.2
2017-06-22T01:07:35.459Z,997.21
2017-06-22T01:08:45.817Z,997.23
2017-06-22T01:09:56.153Z,997.25
2017-06-22T01:11:05.880Z,997.22
2017-06-22T01:12:16.236Z,997.25
2017-06-22T01:13:26.593Z,997.23
2017-06-22T01:14:36.947Z,997.26
2017-06-22T01:15:47.302Z,997.27
2017-06-22T01:16:57.045Z,997.26
2017-06-22T01:18:08.456Z,997.29
2017-06-22T01:19:18.752Z,997.33
2017-06-22T01:20:29.108Z,997.31
2017-06-22T01:21:38.831Z,997.35
2017-06-22T01:22:49.194Z,997.33
2017-06-22T01:23:59.276Z,997.3
2017-06-22T01:25:09.626Z,997.31
2017-06-22T01:26:19.969Z,997.32
2017-06-22T01:27:30.016Z,997.34
2017-06-22T01:28:40.057Z,997.35
2017-06-22T01:29:50.409Z,997.3
2017-06-22T01:31:00.432Z,997.27
2017-06-22T01:32:10.782Z,997.33
2017-06-22T01:33:20.814Z,997.28
2017-06-22T01:34:31.167Z,997.24
2017-06-22T01:35:41.241Z,997.22
2017-06-22T01:36:51.601Z,997.21
2017-06-22T01:38:01.967Z,997.23
2017-06-22T01:39:12.303Z,997.23
2017-06-22T01:40:22.340Z,997.21
2017-06-22T01:41:32.747Z,997.17
2017-06-22T01:42:42.782Z,997.21
2017-06-22T01:43:53.129Z,997.21
2017-06-22T01:45:03.470Z,997.17
2017-06-22T01:46:13.819Z,997.2
2017-06-22T01:47:24.178Z,997.18
2017-06-22T01:48:34.206Z,997.21
2017-06-22T01:49:43.933Z,997.16
2017-06-22T01:50:53.968Z,997.21
2017-06-22T01:52:04.321Z,997.17
2017-06-22T01:53:14.712Z,997.18
2017-06-22T01:54:25.065Z,997.15
2017-06-22T01:55:35.410Z,997.17
2017-06-22T01:56:45.765Z,997.15
2017-06-22T01:57:55.795Z,997.16
2017-06-22T01:59:05.869Z,997.12
2017-06-22T02:00:15.596Z,997.13
2017-06-22T02:01:25.632Z,997.13
2017-06-22T02:02:35.664Z,997.11
2017-06-22T02:03:46.015Z,997.11
2017-06-22T02:04:56.055Z,997.06
2017-06-22T02:06:06.396Z,997.08
2017-06-22T02:07:16.745Z,997.06
2017-06-22T02:08:27.110Z,997.05
2017-06-22T02:09:37.175Z,997.05
2017-06-22T02:10:47.605Z,997.01
2017-06-22T02:11:57.962Z,997
2017-06-22T02:13:08.303Z,996.96
2017-06-22T02:14:18.671Z,997
2017-06-22T02:15:29.026Z,997.01
2017-06-22T02:16:39.118Z,996.99
2017-06-22T02:17:49.472Z,997.02
2017-06-22T02:18:59.822Z,997.02
2017-06-22T02:20:10.187Z,997
2017-06-22T02:21:20.530Z,997.02
2017-06-22T02:22:30.619Z,997.04
2017-06-22T02:23:40.965Z,997.03
2017-06-22T02:24:51.310Z,997.07
2017-06-22T02:26:01.659Z,997.08
2017-06-22T02:27:11.695Z,997.04
2017-06-22T02:28:22.042Z,997.05
2017-06-22T02:29:32.380Z,996.99
2017-06-22T02:30:42.419Z,996.99
2017-06-22T02:31:52.766Z,996.96
2017-06-22T02:33:02.804Z,996.93
2017-06-22T02:34:13.170Z,996.93
2017-06-22T02:35:23.523Z,996.98
2017-06-22T02:36:33.559Z,997.03
2017-06-22T02:37:43.282Z,997.01
2017-06-22T02:38:53.653Z,997.07
2017-06-22T02:40:03.691Z,997.02
2017-06-22T02:41:14.026Z,997.05
2017-06-22T02:42:24.360Z,997.02
2017-06-22T02:43:34.731Z,997.05
2017-06-22T02:44:44.775Z,997.01
2017-06-22T02:45:54.806Z,997.01
2017-06-22T02:47:04.521Z,996.98
2017-06-22T02:48:14.881Z,996.98
2017-06-22T02:49:25.231Z,997.03
2017-06-22T02:50:35.577Z,997.04
2017-06-22T02:51:45.658Z,997.05
2017-06-22T02:52:55.999Z,997.05
2017-06-22T02:54:06.365Z,997.06
2017-06-22T02:55:16.402Z,997.07
2017-06-22T02:56:26.441Z,997.05
2017-06-22T02:57:36.792Z,997.01
2017-06-22T02:58:47.153Z,997
2017-06-22T02:59:57.205Z,996.98
2017-06-22T03:01:07.560Z,996.98
2017-06-22T03:33:20.285Z,997.34
2017-06-22T03:34:29.989Z,997.32
2017-06-22T03:35:39.704Z,997.33
2017-06-22T03:36:49.732Z,997.33
2017-06-22T03:38:00.083Z,997.34
2017-06-22T03:39:10.461Z,997.32
2017-06-22T03:40:20.491Z,997.32
2017-06-22T03:41:30.562Z,997.28
2017-06-22T03:42:40.900Z,997.31
2017-06-22T03:43:50.921Z,997.3
2017-06-22T03:45:00.951Z,997.38
2017-06-22T03:46:11.300Z,997.37
2017-06-22T03:47:21.647Z,997.4
2017-06-22T03:48:31.673Z,997.46
2017-06-22T03:49:42.020Z,997.46
2017-06-22T03:50:52.141Z,997.49
2017-06-22T03:52:02.191Z,997.52
2017-06-22T03:53:12.528Z,997.5
2017-06-22T03:54:22.564Z,997.53
2017-06-22T03:55:32.293Z,997.53
2017-06-22T03:56:42.693Z,997.55
2017-06-22T03:57:52.724Z,997.57
2017-06-22T03:59:03.059Z,997.52
2017-06-22T04:00:13.086Z,997.53
2017-06-22T04:01:22.507Z,997.49
2017-06-22T04:02:32.581Z,997.52
2017-06-22T04:03:42.926Z,997.54
2017-06-22T04:04:52.980Z,997.53
2017-06-22T04:06:03.012Z,997.49
2017-06-22T04:07:13.384Z,997.54
2017-06-22T04:08:23.769Z,997.5
2017-06-22T04:09:34.114Z,997.53
2017-06-22T04:10:44.464Z,997.59
2017-06-22T04:11:54.825Z,997.57
2017-06-22T04:13:05.170Z,997.6
2017-06-22T04:14:15.563Z,997.62
2017-06-22T04:15:25.604Z,997.61
2017-06-22T04:16:35.960Z,997.62
2017-06-22T04:17:45.992Z,997.67
2017-06-22T04:18:56.339Z,997.63
2017-06-22T04:20:06.435Z,997.85
2017-06-22T04:21:16.786Z,997.95
2017-06-22T04:22:27.171Z,998.02
2017-06-22T04:23:37.523Z,998.09
2017-06-22T04:24:47.565Z,998.08
2017-06-22T04:25:57.665Z,998.14
2017-06-22T04:27:08.025Z,998.13
2017-06-22T04:28:18.382Z,998.28
2017-06-22T04:29:28.740Z,998.32
2017-06-22T04:30:39.088Z,998.38
2017-06-22T04:31:49.474Z,998.39
2017-06-22T04:32:59.833Z,998.41
2017-06-22T04:34:09.864Z,998.44
2017-06-22T04:35:20.229Z,998.39
2017-06-22T04:36:30.587Z,998.37
2017-06-22T04:37:40.682Z,998.39
2017-06-22T04:38:50.717Z,998.37
2017-06-22T04:40:01.065Z,998.34
2017-06-22T04:41:11.109Z,998.31
2017-06-22T04:42:21.468Z,998.27
2017-06-22T04:43:31.892Z,998.23
2017-06-22T04:44:42.248Z,998.12
2017-06-22T04:45:51.962Z,998.16
2017-06-22T04:47:02.031Z,998.16
2017-06-22T04:48:12.085Z,998.2
2017-06-22T04:49:22.530Z,998.22
2017-06-22T04:50:32.878Z,998.22
2017-06-22T04:51:43.220Z,998.27
2017-06-22T04:52:53.576Z,998.29
2017-06-22T04:54:03.626Z,998.35
2017-06-22T04:55:13.669Z,998.33
2017-06-22T04:56:23.407Z,998.33
2017-06-22T04:57:33.786Z,998.3
2017-06-22T04:58:44.129Z,998.34
2017-06-22T04:59:54.487Z,998.38
2017-06-22T05:01:04.262Z,998.33
2017-06-22T05:02:14.300Z,998.33
2017-06-22T05:03:24.675Z,998.36
2017-06-22T05:04:35.042Z,998.31
2017-06-22T05:05:45.399Z,998.3
2017-06-22T05:06:55.772Z,998.34
2017-06-22T05:08:06.148Z,998.37
2017-06-22T05:09:16.500Z,998.4
2017-06-22T05:10:26.852Z,998.36
2017-06-22T05:11:36.610Z,998.32
2017-06-22T05:12:46.715Z,998.28
2017-06-22T05:13:57.062Z,998.23
2017-06-22T05:15:07.114Z,998.24
2017-06-22T05:16:16.845Z,998.18
2017-06-22T05:17:26.902Z,998.11
2017-06-22T05:18:37.249Z,998.11
2017-06-22T05:19:47.293Z,998.11
2017-06-22T05:20:57.667Z,998.13
2017-06-22T05:22:08.029Z,998.14
2017-06-22T05:23:18.391Z,998.16
2017-06-22T05:24:28.792Z,998.17
2017-06-22T05:25:39.147Z,998.16
2017-06-22T05:26:49.509Z,998.15
2017-06-22T05:27:59.229Z,998.21
2017-06-22T05:29:09.576Z,998.29
2017-06-22T05:30:19.976Z,998.24
2017-06-22T05:31:30.329Z,998.26
2017-06-22T05:32:40.056Z,998.27
2017-06-22T05:33:50.119Z,998.25
2017-06-22T05:35:00.482Z,998.27
2017-06-22T05:36:10.905Z,998.32
2017-06-22T05:37:21.258Z,998.31
2017-06-22T05:38:31.640Z,998.31
2017-06-22T05:39:42.009Z,998.37
2017-06-22T05:40:52.059Z,998.42
2017-06-22T05:42:02.486Z,998.41
2017-06-22T05:43:12.544Z,998.42
2017-06-22T05:44:22.894Z,998.43
2017-06-22T05:45:33.255Z,998.43
2017-06-22T05:46:43.608Z,998.44
2017-06-22T05:47:54.019Z,998.42
2017-06-22T05:49:04.375Z,998.4
2017-06-22T05:50:14.428Z,998.45
2017-06-22T05:51:24.462Z,998.46
2017-06-22T05:52:34.806Z,998.43
2017-06-22T05:53:44.542Z,998.4
2017-06-22T05:54:54.585Z,998.41
2017-06-22T05:56:04.933Z,998.46
2017-06-22T05:57:14.958Z,998.45
2017-06-22T05:58:24.995Z,998.47
2017-06-22T05:59:35.096Z,998.44
2017-06-22T06:00:45.457Z,998.45
2017-06-22T06:01:55.496Z,998.44
2017-06-22T06:03:05.840Z,998.47
2017-06-22T06:04:16.201Z,998.49
2017-06-22T06:05:26.549Z,998.44
2017-06-22T06:06:36.901Z,998.45
2017-06-22T06:07:46.944Z,998.48
2017-06-22T06:08:57.295Z,998.45
2017-06-22T06:10:07.023Z,998.45
2017-06-22T06:11:17.114Z,998.42
2017-06-22T06:12:27.166Z,998.5
2017-06-22T06:13:36.910Z,998.73
2017-06-22T06:14:47.273Z,998.84
2017-06-22T06:15:57.307Z,998.87
2017-06-22T06:17:07.341Z,998.84
2017-06-22T06:18:17.686Z,998.68
2017-06-22T06:19:27.721Z,998.54
2017-06-22T06:20:37.742Z,998.51
2017-06-22T06:21:47.465Z,998.45
2017-06-22T06:22:57.544Z,998.6
2017-06-22T06:24:07.904Z,998.69
2017-06-22T06:25:17.950Z,998.7
2017-06-22T06:26:27.981Z,998.76
2017-06-22T06:27:38.350Z,998.72
2017-06-22T06:28:48.703Z,998.59
2017-06-22T06:29:59.067Z,998.53
2017-06-22T06:31:09.438Z,998.53
2017-06-22T06:32:19.796Z,998.55
2017-06-22T06:33:29.842Z,998.47
2017-06-22T06:34:40.251Z,998.5
2017-06-22T06:35:50.286Z,998.51
2017-06-22T06:37:00.646Z,998.5
2017-06-22T06:38:11.005Z,998.47
2017-06-22T06:39:21.364Z,998.46
2017-06-22T06:40:31.461Z,998.46
2017-06-22T06:41:41.821Z,998.45
2017-06-22T06:42:51.860Z,998.38
2017-06-22T06:44:01.902Z,998.37
2017-06-22T06:45:12.251Z,998.4
2017-06-22T06:46:22.346Z,998.46
2017-06-22T06:47:32.709Z,998.43
2017-06-22T06:48:43.071Z,998.44
2017-06-22T06:49:53.417Z,998.44
2017-06-22T06:51:03.779Z,998.46
2017-06-22T06:52:14.186Z,998.49
2017-06-22T06:53:24.537Z,998.45
2017-06-22T06:54:34.590Z,998.43
2017-06-22T06:55:44.966Z,998.41
2017-06-22T06:56:55.334Z,998.28
2017-06-22T06:58:04.790Z,998.33
2017-06-22T06:59:15.145Z,998.32
2017-06-22T07:00:25.497Z,998.29
2017-06-22T07:01:35.238Z,998.22
2017-06-22T07:02:45.601Z,998.34
2017-06-22T07:03:55.703Z,998.34
2017-06-22T07:05:05.424Z,998.32
2017-06-22T07:06:15.477Z,998.32
2017-06-22T07:07:25.828Z,998.25
2017-06-22T07:08:36.181Z,998.27
2017-06-22T07:09:46.532Z,998.25
2017-06-22T07:10:56.878Z,998.23
2017-06-22T07:12:07.240Z,998.21
2017-06-22T07:13:17.605Z,998.17
2017-06-22T07:14:27.650Z,998.21
2017-06-22T07:15:37.700Z,998.2
2017-06-22T07:16:48.043Z,998.24
2017-06-22T07:17:58.384Z,998.21
2017-06-22T07:19:08.415Z,998.21
2017-06-22T07:20:18.828Z,998.22
2017-06-22T07:21:29.170Z,998.21
2017-06-22T07:22:39.215Z,998.21
2017-06-22T07:23:49.574Z,998.19
2017-06-22T07:24:59.923Z,998.23
2017-06-22T07:26:10.593Z,998.2
2017-06-22T07:27:20.933Z,998.24
2017-06-22T07:28:31.201Z,998.26
2017-06-22T07:29:41.573Z,998.25
2017-06-22T07:30:51.623Z,998.23
2017-06-22T07:32:01.720Z,998.28
2017-06-22T07:33:12.082Z,998.32
2017-06-22T07:34:22.450Z,998.33
2017-06-22T07:35:32.487Z,998.3
2017-06-22T07:36:42.528Z,998.29
2017-06-22T07:37:52.569Z,998.33
2017-06-22T07:39:02.616Z,998.29
2017-06-22T07:40:12.981Z,998.29
2017-06-22T07:41:23.325Z,998.31
2017-06-22T07:42:33.696Z,998.31
2017-06-22T07:43:43.109Z,998.25
2017-06-22T07:44:53.451Z,998.26
2017-06-22T07:46:03.807Z,998.3
2017-06-22T07:47:13.860Z,998.29
2017-06-22T07:48:24.210Z,998.26
2017-06-22T07:49:33.996Z,998.21
2017-06-22T07:50:44.388Z,998.21
2017-06-22T07:51:54.419Z,998.19
2017-06-22T07:53:04.775Z,998.19
2017-06-22T07:54:14.822Z,998.15
2017-06-22T07:55:25.171Z,998.14
2017-06-22T07:56:35.518Z,998.14
2017-06-22T07:57:45.638Z,998.14
2017-06-22T07:58:56.000Z,998.15
2017-06-22T08:00:06.672Z,998.14
2017-06-22T08:01:17.190Z,998.13
2017-06-22T08:02:27.546Z,998.16
2017-06-22T08:03:37.920Z,998.13
2017-06-22T08:04:48.297Z,998.11
2017-06-22T08:05:58.054Z,998.13
2017-06-22T08:07:08.489Z,998.17
2017-06-22T08:08:18.857Z,998.15
2017-06-22T08:09:29.236Z,998.16
2017-06-22T08:10:39.620Z,998.13
2017-06-22T08:11:49.663Z,998.17
2017-06-22T08:13:00.080Z,998.15
2017-06-22T08:14:10.405Z,998.15
2017-06-22T08:15:20.801Z,998.15
2017-06-22T08:16:31.163Z,998.12
2017-06-22T08:17:41.524Z,998.14
2017-06-22T08:18:51.932Z,998.15
2017-06-22T08:20:01.993Z,998.13
2017-06-22T08:21:12.382Z,998.1
2017-06-22T08:22:22.782Z,998.09
2017-06-22T08:23:33.175Z,998.09
2017-06-22T08:24:43.292Z,998.09
2017-06-22T08:25:53.676Z,998.06
2017-06-22T08:27:04.040Z,998.05
2017-06-22T08:28:14.406Z,998.05
2017-06-22T08:29:24.467Z,998.05
2017-06-22T08:30:34.901Z,998.03
2017-06-22T08:31:44.946Z,998.04
2017-06-22T08:32:55.316Z,998.05
2017-06-22T08:34:05.382Z,998.03
2017-06-22T08:35:15.753Z,998.09
2017-06-22T08:36:26.173Z,998.05
2017-06-22T08:37:36.556Z,998.03
2017-06-22T08:38:46.930Z,997.98
2017-06-22T08:39:56.987Z,997.98
2017-06-22T08:41:07.355Z,997.94
2017-06-22T08:42:17.782Z,997.95
2017-06-22T08:43:28.159Z,997.94
2017-06-22T08:44:37.896Z,997.92
2017-06-22T08:45:47.651Z,997.94
2017-06-22T08:46:58.045Z,997.95
2017-06-22T08:48:08.140Z,997.97
2017-06-22T08:49:18.176Z,997.98
2017-06-22T08:50:28.529Z,997.98
2017-06-22T08:51:38.581Z,997.96
2017-06-22T08:52:48.949Z,998.01
2017-06-22T08:53:59.041Z,998
2017-06-22T08:55:09.096Z,997.97
2017-06-22T08:56:19.168Z,997.99
2017-06-22T08:57:28.610Z,997.99
2017-06-22T08:58:38.977Z,997.99
2017-06-22T08:59:49.379Z,997.98
2017-06-22T09:00:59.750Z,997.97
2017-06-22T09:02:10.154Z,998.03
2017-06-22T09:03:20.520Z,998.02
2017-06-22T09:04:30.586Z,998
2017-06-22T09:05:40.690Z,997.99
2017-06-22T09:06:51.052Z,998
2017-06-22T09:08:01.429Z,997.97
2017-06-22T09:09:11.191Z,997.98
2017-06-22T09:10:21.551Z,997.96
2017-06-22T09:11:31.966Z,997.93
2017-06-22T09:12:42.010Z,997.93
2017-06-22T09:13:51.793Z,997.96
2017-06-22T09:15:02.152Z,997.93
2017-06-22T09:16:12.524Z,997.88
2017-06-22T09:17:22.897Z,997.93
2017-06-22T09:18:32.979Z,997.95
2017-06-22T09:19:43.337Z,997.97
2017-06-22T09:20:53.693Z,997.95
2017-06-22T09:22:04.068Z,997.95
2017-06-22T09:23:14.426Z,997.94
2017-06-22T09:24:24.798Z,997.96
2017-06-22T09:25:34.847Z,997.93
2017-06-22T09:26:44.589Z,997.93
2017-06-22T09:27:54.962Z,997.96
2017-06-22T09:29:05.378Z,997.94
2017-06-22T09:30:15.760Z,997.92
2017-06-22T09:31:25.791Z,997.92
2017-06-22T09:32:35.862Z,997.94
2017-06-22T09:33:46.230Z,997.95
2017-06-22T09:34:56.643Z,997.91
2017-06-22T09:36:06.693Z,997.87
2017-06-22T09:37:17.067Z,997.88
2017-06-22T09:38:27.448Z,997.85
2017-06-22T09:39:37.495Z,997.88
2017-06-22T09:40:47.580Z,997.81
2017-06-22T09:41:57.947Z,997.81
2017-06-22T09:43:07.998Z,997.79
2017-06-22T09:44:18.075Z,997.76
2017-06-22T09:45:28.444Z,997.76
2017-06-22T09:46:38.533Z,997.72
2017-06-22T09:47:48.896Z,997.69
2017-06-22T09:48:59.270Z,997.69
2017-06-22T09:50:09.615Z,997.68
2017-06-22T09:51:19.668Z,997.65
2017-06-22T09:52:30.075Z,997.61
2017-06-22T09:53:39.811Z,997.63
2017-06-22T09:54:49.852Z,997.61
2017-06-22T09:55:59.571Z,997.59
2017-06-22T09:57:09.920Z,997.55
2017-06-22T09:58:20.436Z,997.57
2017-06-22T09:59:30.994Z,997.6
2017-06-22T10:00:41.027Z,997.56
2017-06-22T10:01:51.069Z,997.59
2017-06-22T10:03:01.130Z,997.6
2017-06-22T10:04:11.240Z,997.6
2017-06-22T10:05:21.588Z,997.57
2017-06-22T10:06:31.950Z,997.6
2017-06-22T10:07:42.000Z,997.54
2017-06-22T10:08:52.378Z,997.52
2017-06-22T10:10:02.481Z,997.52
2017-06-22T10:11:12.853Z,997.48
2017-06-22T10:12:22.909Z,997.44
2017-06-22T10:13:33.286Z,997.44
2017-06-22T10:14:43.637Z,997.41
2017-06-22T10:15:53.106Z,997.39
2017-06-22T10:17:03.465Z,997.44
2017-06-22T10:18:13.827Z,997.43
2017-06-22T10:19:23.866Z,997.43
2017-06-22T10:20:34.246Z,997.43
2017-06-22T10:21:44.661Z,997.39
2017-06-22T10:22:55.025Z,997.38
2017-06-22T10:24:05.398Z,997.37
2017-06-22T10:25:15.439Z,997.32
2017-06-22T10:26:25.814Z,997.32
2017-06-22T10:27:36.238Z,997.33
2017-06-22T10:28:46.604Z,997.32
2017-06-22T10:29:56.982Z,997.35
2017-06-22T10:31:07.337Z,997.32
2017-06-22T10:32:17.707Z,997.34
2017-06-22T10:33:28.120Z,997.37
2017-06-22T10:34:38.490Z,997.3
2017-06-22T10:35:48.857Z,997.3
2017-06-22T10:36:58.912Z,997.32
2017-06-22T10:38:09.286Z,997.34
2017-06-22T10:39:19.373Z,997.34
2017-06-22T10:40:29.741Z,997.34
2017-06-22T10:41:40.116Z,997.33
2017-06-22T10:42:50.179Z,997.28
2017-06-22T10:44:00.224Z,997.28
2017-06-22T10:45:10.313Z,997.29
2017-06-22T10:46:20.349Z,997.27
2017-06-22T10:47:30.397Z,997.24
2017-06-22T10:48:40.455Z,997.25
2017-06-22T10:49:50.508Z,997.25
2017-06-22T10:51:00.549Z,997.23
2017-06-22T10:52:10.589Z,997.19
2017-06-22T10:53:20.691Z,997.23
2017-06-22T10:54:31.063Z,997.19
2017-06-22T10:55:41.424Z,997.14
2017-06-22T10:56:51.165Z,997.15
2017-06-22T10:58:01.204Z,997.11
2017-06-22T10:59:11.289Z,997.13
2017-06-22T11:00:21.027Z,997.08
2017-06-22T11:01:31.383Z,997.06
2017-06-22T11:02:41.130Z,997.1
2017-06-22T11:03:51.173Z,997.09
2017-06-22T11:05:01.272Z,997.03
2017-06-22T11:06:11.640Z,997.04
2017-06-22T11:07:21.992Z,997.01
2017-06-22T11:08:32.358Z,996.98
2017-06-22T11:09:42.746Z,996.98
2017-06-22T11:10:52.789Z,996.97
2017-06-22T11:12:03.153Z,996.95
2017-06-22T11:13:13.209Z,996.94
2017-06-22T11:14:23.263Z,996.91
2017-06-22T11:15:33.636Z,996.94
2017-06-22T11:16:44.050Z,996.95
2017-06-22T11:17:54.420Z,996.89
2017-06-22T11:19:04.453Z,996.84
2017-06-22T11:20:14.501Z,996.86
2017-06-22T11:21:24.887Z,996.82
2017-06-22T11:22:35.249Z,996.79
2017-06-22T11:23:45.018Z,996.77
2017-06-22T11:24:55.392Z,996.82
2017-06-22T11:26:05.437Z,996.82
2017-06-22T11:27:15.799Z,996.79
2017-06-22T11:28:26.166Z,996.77
2017-06-22T11:29:36.540Z,996.75
2017-06-22T11:30:46.273Z,996.76
2017-06-22T11:31:56.638Z,996.79
2017-06-22T11:33:06.986Z,996.81
2017-06-22T11:34:17.426Z,996.75
2017-06-22T11:35:27.189Z,996.75
2017-06-22T11:36:37.240Z,996.76
2017-06-22T11:37:47.298Z,996.75
2017-06-22T11:38:57.349Z,996.72
2017-06-22T11:40:07.487Z,996.74
2017-06-22T11:41:17.869Z,996.71
2017-06-22T11:42:27.681Z,996.7
2017-06-22T11:43:37.750Z,996.68
2017-06-22T11:44:47.983Z,996.66
2017-06-22T11:45:58.055Z,996.67
2017-06-22T11:47:08.403Z,996.66
2017-06-22T11:48:18.751Z,996.64
2017-06-22T11:49:29.110Z,996.61
2017-06-22T11:50:39.712Z,996.64
2017-06-22T11:51:50.145Z,996.61
2017-06-22T11:53:00.209Z,996.63
2017-06-22T11:54:10.583Z,996.62
2017-06-22T11:55:20.948Z,996.6
2017-06-22T11:56:31.305Z,996.56
2017-06-22T11:57:41.407Z,996.56
2017-06-22T11:58:51.456Z,996.52
2017-06-22T12:00:01.534Z,996.47
2017-06-22T12:01:11.923Z,996.47
2017-06-22T12:02:21.967Z,996.46
2017-06-22T12:03:32.397Z,996.46
2017-06-22T12:04:42.761Z,996.44
2017-06-22T12:05:53.140Z,996.4
2017-06-22T12:07:03.189Z,996.42
2017-06-22T12:08:13.605Z,996.43
2017-06-22T12:09:24.013Z,996.42
2017-06-22T12:10:34.364Z,996.42
2017-06-22T12:11:44.740Z,996.4
2017-06-22T12:12:55.126Z,996.39
2017-06-22T12:14:05.186Z,996.34
2017-06-22T12:15:15.613Z,996.37
2017-06-22T12:16:25.361Z,996.36
2017-06-22T12:17:35.435Z,996.31
2017-06-22T12:18:45.468Z,996.26
2017-06-22T12:19:55.524Z,996.26
2017-06-22T12:21:05.962Z,996.19
2017-06-22T12:22:16.334Z,996.21
2017-06-22T12:23:26.707Z,996.14
2017-06-22T12:24:36.454Z,996.12
2017-06-22T12:25:46.836Z,996.16
2017-06-22T12:26:57.262Z,996.09
2017-06-22T12:28:07.633Z,996.08
2017-06-22T12:29:17.683Z,996.09
2017-06-22T12:30:28.058Z,996.07
2017-06-22T12:31:37.821Z,996.05
2017-06-22T12:32:47.967Z,996.01
2017-06-22T12:33:58.036Z,996.02
2017-06-22T12:35:08.102Z,996
2017-06-22T12:36:18.479Z,995.93
2017-06-22T12:37:28.843Z,995.93
2017-06-22T12:38:38.940Z,995.92
2017-06-22T12:39:49.314Z,995.86
2017-06-22T12:40:59.364Z,995.87
2017-06-22T12:42:09.175Z,995.76
2017-06-22T12:43:19.240Z,995.79
2017-06-22T12:44:29.673Z,995.76
2017-06-22T12:45:40.048Z,995.7
2017-06-22T12:46:50.425Z,995.67
2017-06-22T12:48:00.830Z,995.66
2017-06-22T12:49:10.878Z,995.6
2017-06-22T12:50:20.933Z,995.65
2017-06-22T12:51:31.307Z,995.62
2017-06-22T12:52:41.668Z,995.61
2017-06-22T12:53:51.745Z,995.61
2017-06-22T12:55:01.797Z,995.59
2017-06-22T12:56:12.194Z,995.58
2017-06-22T12:57:22.592Z,995.58
2017-06-22T12:58:32.970Z,995.66
2017-06-22T12:59:43.328Z,995.6
2017-06-22T13:00:53.414Z,995.53
2017-06-22T13:02:03.860Z,995.53
2017-06-22T13:03:13.948Z,995.48
2017-06-22T13:04:24.338Z,995.47
2017-06-22T13:05:34.719Z,995.48
2017-06-22T13:06:45.101Z,995.47
2017-06-22T13:07:55.532Z,995.47
2017-06-22T13:09:05.908Z,995.43
2017-06-22T13:10:16.363Z,995.47
2017-06-22T13:11:26.747Z,995.47
2017-06-22T13:12:37.110Z,995.42
2017-06-22T13:13:47.231Z,995.4
2017-06-22T13:14:57.610Z,995.35
2017-06-22T13:16:07.367Z,995.4
2017-06-22T13:17:17.433Z,995.4
2017-06-22T13:18:27.162Z,995.34
2017-06-22T13:19:37.617Z,995.37
2017-06-22T13:20:48.009Z,995.34
2017-06-22T13:21:58.391Z,995.34
2017-06-22T13:23:08.774Z,995.24
2017-06-22T13:24:18.838Z,995.18
2017-06-22T13:25:28.946Z,995.23
2017-06-22T13:26:39.333Z,995.2
2017-06-22T13:27:49.701Z,995.23
2017-06-22T13:29:00.072Z,995.24
2017-06-22T13:30:10.438Z,995.25
2017-06-22T13:31:20.879Z,995.21
2017-06-22T13:32:30.971Z,995.25
2017-06-22T13:33:41.039Z,995.24
2017-06-22T13:34:51.416Z,995.17
2017-06-22T13:36:01.784Z,995.11
2017-06-22T13:37:12.227Z,995.11
2017-06-22T13:38:22.625Z,995.07
2017-06-22T13:39:32.706Z,995
2017-06-22T13:40:43.088Z,995.07
2017-06-22T13:41:53.170Z,995.11
2017-06-22T13:43:03.579Z,995.09
2017-06-22T13:44:13.960Z,995.12
2017-06-22T13:45:24.321Z,995
2017-06-22T13:46:34.692Z,995.07
2017-06-22T13:47:45.055Z,995.16
2017-06-22T13:48:55.167Z,995
2017-06-22T13:50:05.219Z,995.07
2017-06-22T13:51:15.292Z,995.04
2017-06-22T13:52:25.635Z,995.01
2017-06-22T13:53:36.004Z,994.97
2017-06-22T13:54:46.115Z,994.98
2017-06-22T13:55:56.177Z,994.9
2017-06-22T13:57:06.220Z,994.84
2017-06-22T13:58:16.596Z,994.95
2017-06-22T13:59:26.979Z,994.88
2017-06-22T14:00:37.396Z,994.89
2017-06-22T14:01:47.757Z,994.97
2017-06-22T14:02:58.122Z,994.91
2017-06-22T14:04:08.700Z,994.94
2017-06-22T14:05:19.076Z,994.87
2017-06-22T14:06:29.502Z,994.96
2017-06-22T14:07:38.945Z,994.93
2017-06-22T14:08:49.319Z,994.89
2017-06-22T14:09:59.703Z,994.9
2017-06-22T14:11:09.760Z,994.99
2017-06-22T14:12:19.879Z,994.9
2017-06-22T14:13:29.968Z,995.01
2017-06-22T14:14:40.330Z,994.92
2017-06-22T14:15:50.383Z,994.87
2017-06-22T14:17:00.763Z,994.87
2017-06-22T14:18:10.878Z,994.85
2017-06-22T14:19:21.262Z,994.88
2017-06-22T14:20:31.312Z,994.84
2017-06-22T14:21:41.682Z,994.85
2017-06-22T14:22:51.734Z,994.83
2017-06-22T14:24:02.166Z,994.87
2017-06-22T14:25:12.528Z,994.87
2017-06-22T14:26:22.900Z,994.83
2017-06-22T14:27:32.639Z,994.83
2017-06-22T14:28:42.700Z,994.82
2017-06-22T14:29:52.506Z,994.77
2017-06-22T14:31:02.895Z,994.76
2017-06-22T14:32:13.268Z,994.82
2017-06-22T14:33:23.319Z,994.76
2017-06-22T14:34:33.725Z,994.76
2017-06-22T14:35:44.154Z,994.75
2017-06-22T14:36:54.535Z,994.74
2017-06-22T14:38:04.901Z,994.79
2017-06-22T14:39:15.277Z,994.81
2017-06-22T14:40:25.024Z,994.77
2017-06-22T14:41:35.436Z,994.78
2017-06-22T14:42:45.838Z,994.85
2017-06-22T14:43:56.251Z,994.81
2017-06-22T14:45:06.603Z,994.77
2017-06-22T14:46:16.979Z,994.83
2017-06-22T14:47:27.107Z,994.78
2017-06-22T14:48:37.165Z,994.84
2017-06-22T14:49:47.224Z,994.77
2017-06-22T14:50:57.611Z,994.79
2017-06-22T14:52:07.376Z,994.79
2017-06-22T14:53:17.431Z,994.76
2017-06-22T14:54:27.495Z,994.83
2017-06-22T14:55:37.567Z,994.79
2017-06-22T14:56:47.629Z,994.76
2017-06-22T14:57:57.701Z,994.84
2017-06-22T14:59:08.114Z,994.76
2017-06-22T15:00:18.165Z,994.68
2017-06-22T15:01:28.540Z,994.72
2017-06-22T15:02:38.619Z,994.69
2017-06-22T15:03:48.414Z,994.69
2017-06-22T15:04:58.841Z,994.74
2017-06-22T15:06:09.209Z,994.72
2017-06-22T15:07:19.315Z,994.71
2017-06-22T15:08:29.692Z,994.77
2017-06-22T15:09:40.070Z,994.73
2017-06-22T15:10:50.169Z,994.75